New Nickerie, Suriname
Current Conditions -  °F | °C
As of 1:00 PM on Saturday 25 Oct 2014 (Local Time) from SMZO Reporting Station
Broken Clouds Broken Clouds  
Wind Chill: 91°   Ceiling: 3500
Heat Index: 98°   Visibility: 6mi
Dew Point: 72°   Wind: 7mph
Humidity: 52%   Direction: 140°SE
Pressure: 29.83"   Gusts: NA
Location:  5.82°N, 55.18°W
Report Text: SMZO 251600Z 14006KT 9999 BKN035 33/22 Q1010 NOSIG
Loading
Personal Weather Stations






























Interactive Weather Map
Tropical Storm Tracking
New forecast layout! Learn more

10-Day Weather Forecast

Advertisements
Track Severe Weather on mobile